メインページ
METAR-TAF:

METAR-TAF

空港 :

ベオグラード・ニコラ・テスラ空港

ベオグラード, セルビア

緯度: 44-49N, 経度: 020-17E, 海抜: 96m

現時点の気象観測

当レポートは20分前の19:30(UTC)に作成
東/南東の風 8kt
気温 21°C
湿度 60%
気圧 1020 hPa
視程10km以上
1,500メートル以下は雲なし、積乱雲なし

METAR: LYBE 181930Z 12008KT CAVOK 21/13 Q1020 NOSIG

時間: 21:50 (19:50 UTC)

予報

当レポートは2時間50分前の17:00(UTC)に作成
予報は18日の 18時(UTC)から 19日の 18時(UTC)まで有効
東/南東の風 8kt
視程10km以上
1,500メートル以下は雲なし、積乱雲なし

TAF: LYBE 181700Z 1818/1918 12008KT CAVOK TX29/1913Z TN15/1904Z

4,000以上の空港の気象観測と天気予報(METAR報とTAF報)

利用可能な観測所は地図上に黄色い丸と赤い丸で示す。

丸の上にカーソルを重ねると観測所名を参照できる。

次にクリックすると気象観測と天気予報を参照できる。

マップの切り替え:黒色「×」印の緑ボタンをクリックして拡大、「-」印の緑ボタンをクリックして縮小、緑色の三角印をクリックして隣りの地図に切り替え


METAR-TAF: